Terminal Aerodrome Forecast
Issued by NWS Melbourne, FL

Home | Current Version | Previous Version | Text Only | Print | Product List | Glossary On
Versions: 1 2 3 4 5 6 7 8 9 10 11 12 13 14 15 16 17 18
000
FTUS42 KMLB 080844 AAA
TAFDAB
TAF AMD
KDAB 080844Z 0809/0906 34003KT P6SM SCT010
      TEMPO 0810/0813 3SM BR BKN006
     FM081500 34008KT P6SM FEW030 SCT250=

USA.gov is the U.S. government's official web portal to all federal, state and local government web resources and services.